Flight Track Log - Related Links

Times and Time Zones

All times are in EDT time to prevent confusion due to time zone crossing. See the SWA4963 flight status page for this flight to view local times or setup timezone preferences in your user account.

Time Position Orientation Groundspeed Altitude Reporting Facility
EDT Latitude Longitude Course Direction KTS MPH feet Rate Location/Type
03:59PM 30.4736 -81.6778 54° Northeast 151 174 900  Level Jacksonville Center
04:00PM 30.4964 -81.6414 54° Northeast 202 232 2,900 2,000 Climbing Jacksonville Center
04:01PM 30.5403 -81.6506 350° North 240 276 4,400 2,486 Climbing Jacksonville Center
04:02PM 30.6156 -81.6686 348° North 278 320 7,500 3,250 Climbing Jacksonville Center
04:03PM 30.6950 -81.6869 349° North 299 344 10,900 3,200 Climbing Jacksonville Center
04:04PM 30.7731 -81.7539 324° Northwest 325 374 13,900 2,000 Climbing Jacksonville Center
04:05PM 30.8344 -81.8547 305° West 344 396 14,900 1,300 Climbing Jacksonville Center
04:06PM 30.9144 -81.9603 311° West 384 442 16,500 2,450 Climbing Jacksonville Center
04:07PM 30.9736 -82.0664 303° West 396 456 19,800 3,000 Climbing Jacksonville Center
04:08PM 31.0369 -82.1700 306° West 396 456 22,500 2,450 Climbing Jacksonville Center
04:09PM 31.1022 -82.2836 304° West 401 461 24,700 1,250 Climbing Jacksonville Center
04:10PM 31.1697 -82.3947 305° West 413 475 25,000 750 Climbing Jacksonville Center
04:11PM 31.2369 -82.5086 305° West 423 487 26,200 1,300 Climbing Jacksonville Center
04:12PM 31.3039 -82.6275 303° West 428 493 27,600 1,500 Climbing Jacksonville Center
04:13PM 31.3708 -82.7319 307° West 434 499 29,200 1,550 Climbing Jacksonville Center
04:14PM 31.4442 -82.8561 305° West 452 520 30,700 1,816 Climbing Jacksonville Center
04:16PM 31.6036 -83.1392 304° West 472 543 34,800 2,043 Climbing Atlanta Center
04:17PM 31.6753 -83.2628 304° West 484 557 37,000 1,100 Climbing Atlanta Center
04:18PM 31.7447 -83.3819 304° West 463 533 37,000  Level Atlanta Center
04:19PM 31.8144 -83.5036 304° West 452 520 37,000  Level Atlanta Center
04:20PM 31.8836 -83.6206 305° West 452 520 37,000  Level Atlanta Center
04:21PM 31.9508 -83.7428 303° West 447 514 37,000 -300 Level Atlanta Center
04:22PM 32.0178 -83.8625 303° West 447 514 36,400 -800 Descending Atlanta Center
04:23PM 32.0869 -83.9825 304° West 442 509 35,400 -1,000 Descending Atlanta Center
04:24PM 32.1536 -84.1025 303° West 437 503 34,400 -950 Descending Atlanta Center
04:25PM 32.2203 -84.2231 303° West 437 503 33,500 -950 Descending Atlanta Center
04:26PM 32.2911 -84.3458 304° West 437 503 32,500 -750 Descending Atlanta Center
04:27PM 32.3594 -84.4692 303° West 437 503 32,000 -250 Descending Atlanta Center
04:28PM 32.4258 -84.5875 304° West 437 503 32,000  Level Atlanta Center
04:29PM 32.4919 -84.7136 302° West 437 503 32,000  Level Atlanta Center
04:30PM 32.5581 -84.8347 303° West 437 503 32,000  Level Atlanta Center
04:31PM 32.6242 -84.9514 304° West 432 497 32,000 -450 Level Atlanta Center
04:32PM 32.6942 -85.0756 304° West 439 505 31,100 -1,500 Descending Atlanta Center
04:33PM 32.7661 -85.1997 305° West 439 505 29,000 -1,550 Descending Atlanta Center
04:34PM 32.8294 -85.3194 302° West 439 505 28,000 -1,450 Descending Atlanta Center
04:35PM 32.8931 -85.4342 303° West 429 494 26,100 -2,400 Descending Atlanta Center
04:36PM 32.9564 -85.5539 302° West 429 494 23,200 -2,500 Descending Atlanta Center
04:37PM 33.0194 -85.6739 302° West 429 494 21,100 -2,094 Descending Atlanta Center
04:38PM 33.0622 -85.7589 301° West 406 467 19,500 -2,018 Descending Atlanta Center
04:39PM 33.1272 -85.8842 302° West 379 436 17,300 -1,703 Descending Atlanta Center
04:41PM 33.2090 -86.0205 306° West  Level FlightAware Approximate
04:44PM 33.3331 -86.4108 301° West 297 342 9,000  Level Atlanta Center
04:46PM 33.4291 -86.5333 313° West  Level FlightAware Approximate
04:46PM 33.3900 -86.5914 140° Southeast 304 350 6,100  Level Atlanta Center
04:47PM 33.4006 -86.6814 278° West 291 335 5,000 -1,306 Descending Atlanta Center
04:48PM 33.5798 -86.7440 306° West  Level FlightAware Approximate
04:48PM 33.3775 -86.7900 256° West 266 306 3,400  Level Atlanta Center
04:49PM 33.5639 -86.7523 301° West  Level Estimated
04:49PM 33.3650 -86.8792 260° West 249 287 3,000  Level Atlanta Center
04:51PM 33.3711 -86.9714 275° West 232 267 3,000 -47 Level Atlanta Center
04:51PM 33.4206 -87.0031 332° Northwest 218 251 2,900 -220 Descending Atlanta Center
04:52PM 33.4467 -86.9567 56° Northeast 191 220 2,600 -104 Descending Atlanta Center
04:53PM 33.5500 -86.7500 140° Southeast  Level FlightAware Approximate
04:53PM 33.4769 -86.9078 53° Northeast 191 220 2,700  Level Atlanta Center
04:54PM 33.5639 -86.7523 140° Southeast  Level Estimated
04:54PM 33.5053 -86.8589 55° Northeast 179 206 2,400  Level Atlanta Center
04:55PM 33.5269 -86.8197 56° Northeast 144 166 1,600 -787 Descending Atlanta Center
04:57PM 33.5639 -86.7523 339° North  Level Estimated
05:04PM 33.5639 -86.7523 140° Southeast  Level Estimated
05:05PM 33.5639 -86.7523 140° Southeast  Level Estimated

Login

Don't have an account? Register now (free) for customized features, flight alerts, and more!